createdAt,value
2016-07-30T00:00:52.738Z,1006.36
2016-07-30T00:01:52.743Z,1006.41
2016-07-30T00:02:52.751Z,1006.38
2016-07-30T00:03:52.756Z,1006.38
2016-07-30T00:04:52.761Z,1006.38
2016-07-30T00:05:52.769Z,1006.41
2016-07-30T00:07:52.779Z,1006.43
2016-07-30T00:08:52.794Z,1006.46
2016-07-30T00:09:52.794Z,1006.45
2016-07-30T00:10:52.798Z,1006.43
2016-07-30T00:11:52.804Z,1006.43
2016-07-30T00:12:52.809Z,1006.47
2016-07-30T00:13:52.817Z,1006.46
2016-07-30T00:14:52.822Z,1006.43
2016-07-30T00:15:52.827Z,1006.43
2016-07-30T00:16:52.835Z,1006.4
2016-07-30T00:17:52.841Z,1006.39
2016-07-30T00:18:52.847Z,1006.41
2016-07-30T00:20:52.861Z,1006.48
2016-07-30T00:21:52.865Z,1006.44
2016-07-30T00:22:52.872Z,1006.48
2016-07-30T00:23:52.879Z,1006.5
2016-07-30T00:24:52.885Z,1006.46
2016-07-30T00:25:52.890Z,1006.44
2016-07-30T00:26:52.897Z,1006.47
2016-07-30T00:27:52.903Z,1006.48
2016-07-30T00:28:52.907Z,1006.46
2016-07-30T00:29:52.914Z,1006.46
2016-07-30T00:30:52.921Z,1006.46
2016-07-30T00:31:52.926Z,1006.43
2016-07-30T00:32:52.932Z,1006.43
2016-07-30T00:33:52.939Z,1006.39
2016-07-30T00:34:52.944Z,1006.4
2016-07-30T00:35:54.066Z,1006.41
2016-07-30T00:36:52.956Z,1006.39
2016-07-30T00:37:52.962Z,1006.4
2016-07-30T00:38:52.969Z,1006.43
2016-07-30T00:39:52.974Z,1006.41
2016-07-30T00:40:52.980Z,1006.43
2016-07-30T00:41:52.986Z,1006.39
2016-07-30T00:42:52.991Z,1006.42
2016-07-30T00:43:52.998Z,1006.44
2016-07-30T00:44:53.004Z,1006.45
2016-07-30T00:45:53.011Z,1006.42
2016-07-30T00:46:54.068Z,1006.41
2016-07-30T00:47:53.023Z,1006.4
2016-07-30T00:48:53.029Z,1006.41
2016-07-30T00:49:53.035Z,1006.38
2016-07-30T00:50:53.040Z,1006.42
2016-07-30T00:51:53.046Z,1006.35
2016-07-30T00:52:53.052Z,1006.38
2016-07-30T00:53:53.059Z,1006.4
2016-07-30T00:54:53.063Z,1006.34
2016-07-30T00:55:53.071Z,1006.33
2016-07-30T00:56:53.074Z,1006.3
2016-07-30T00:57:53.879Z,1006.3
2016-07-30T00:58:53.086Z,1006.28
2016-07-30T00:59:53.092Z,1006.29
2016-07-30T01:00:53.098Z,1006.24
2016-07-30T01:01:53.106Z,1006.27
2016-07-30T01:02:53.110Z,1006.24
2016-07-30T01:03:53.114Z,1006.23
2016-07-30T01:04:53.121Z,1006.2
2016-07-30T01:05:53.125Z,1006.19
2016-07-30T01:06:53.132Z,1006.23
2016-07-30T01:07:53.142Z,1006.23
2016-07-30T01:08:53.443Z,1006.29
2016-07-30T01:09:53.149Z,1006.26
2016-07-30T01:10:53.156Z,1006.31
2016-07-30T01:11:53.167Z,1006.29
2016-07-30T01:12:53.167Z,1006.28
2016-07-30T01:13:53.174Z,1006.32
2016-07-30T01:14:53.178Z,1006.3
2016-07-30T01:15:53.184Z,1006.31
2016-07-30T01:16:53.191Z,1006.27
2016-07-30T01:17:53.196Z,1006.3
2016-07-30T01:18:53.203Z,1006.29
2016-07-30T01:19:53.213Z,1006.32
2016-07-30T01:20:53.213Z,1006.35
2016-07-30T01:21:53.221Z,1006.29
2016-07-30T01:22:53.225Z,1006.33
2016-07-30T01:23:53.230Z,1006.31
2016-07-30T01:24:53.237Z,1006.31
2016-07-30T01:25:53.244Z,1006.32
2016-07-30T01:26:53.250Z,1006.33
2016-07-30T01:27:53.254Z,1006.35
2016-07-30T01:28:53.261Z,1006.3
2016-07-30T01:29:53.268Z,1006.32
2016-07-30T01:30:53.274Z,1006.32
2016-07-30T01:31:53.280Z,1006.33
2016-07-30T01:32:53.285Z,1006.28
2016-07-30T01:33:53.292Z,1006.26
2016-07-30T01:34:53.297Z,1006.3
2016-07-30T01:35:53.303Z,1006.24
2016-07-30T01:36:53.310Z,1006.21
2016-07-30T01:37:53.316Z,1006.23
2016-07-30T01:38:53.322Z,1006.24
2016-07-30T01:39:53.328Z,1006.25
2016-07-30T01:40:53.334Z,1006.21
2016-07-30T01:41:53.338Z,1006.18
2016-07-30T01:42:53.344Z,1006.17
2016-07-30T01:43:54.354Z,1006.17
2016-07-30T01:44:53.357Z,1006.13
2016-07-30T01:45:53.363Z,1006.18
2016-07-30T01:46:53.369Z,1006.14
2016-07-30T01:47:53.374Z,1006.1
2016-07-30T01:48:53.382Z,1006.13
2016-07-30T01:49:53.385Z,1006.13
2016-07-30T01:50:53.393Z,1006.14
2016-07-30T01:51:53.399Z,1006.19
2016-07-30T01:52:53.404Z,1006.19
2016-07-30T01:53:53.409Z,1006.24
2016-07-30T01:54:54.015Z,1006.18
2016-07-30T01:55:53.424Z,1006.19
2016-07-30T01:56:53.426Z,1006.17
2016-07-30T01:57:53.433Z,1006.17
2016-07-30T01:58:53.440Z,1006.19
2016-07-30T01:59:53.446Z,1006.18
2016-07-30T02:00:53.451Z,1006.16
2016-07-30T02:01:53.457Z,1006.14
2016-07-30T02:02:53.463Z,1006.19
2016-07-30T02:03:53.468Z,1006.16
2016-07-30T02:04:53.475Z,1006.15
2016-07-30T02:05:53.681Z,1006.16
2016-07-30T02:06:53.486Z,1006.14
2016-07-30T02:07:53.491Z,1006.09
2016-07-30T02:08:53.496Z,1006.13
2016-07-30T02:09:53.502Z,1006.09
2016-07-30T02:10:53.509Z,1006.12
2016-07-30T02:11:53.512Z,1006.11
2016-07-30T02:12:53.519Z,1006.09
2016-07-30T02:13:53.525Z,1006.08
2016-07-30T02:14:53.529Z,1006.01
2016-07-30T02:15:53.536Z,1006.02
2016-07-30T02:16:53.541Z,1006.06
2016-07-30T02:17:53.546Z,1006.04
2016-07-30T02:18:53.552Z,1006.05
2016-07-30T02:19:53.558Z,1006.03
2016-07-30T02:20:53.563Z,1006.03
2016-07-30T02:21:53.571Z,1005.99
2016-07-30T02:22:53.577Z,1006.02
2016-07-30T02:23:53.582Z,1006.04
2016-07-30T02:24:53.588Z,1006.03
2016-07-30T02:25:53.593Z,1006.03
2016-07-30T02:26:53.599Z,1005.99
2016-07-30T02:27:53.605Z,1005.97
2016-07-30T02:28:53.610Z,1005.95
2016-07-30T02:29:54.716Z,1005.93
2016-07-30T02:30:53.624Z,1005.99
2016-07-30T02:31:53.678Z,1005.96
2016-07-30T02:32:53.634Z,1005.94
2016-07-30T02:33:53.639Z,1006
2016-07-30T02:34:53.645Z,1005.97
2016-07-30T02:35:53.651Z,1005.92
2016-07-30T02:36:53.655Z,1005.93
2016-07-30T02:37:53.661Z,1005.95
2016-07-30T02:38:53.667Z,1005.95
2016-07-30T02:39:53.672Z,1005.94
2016-07-30T02:40:54.229Z,1005.93
2016-07-30T02:41:53.683Z,1005.97
2016-07-30T02:42:53.690Z,1005.92
2016-07-30T02:43:53.696Z,1005.95
2016-07-30T02:44:53.701Z,1005.94
2016-07-30T02:45:53.708Z,1005.92
2016-07-30T02:46:53.714Z,1005.93
2016-07-30T02:47:53.719Z,1005.9
2016-07-30T02:48:53.724Z,1005.92
2016-07-30T02:49:53.730Z,1005.91
2016-07-30T02:50:53.735Z,1005.92
2016-07-30T02:51:53.841Z,1005.92
2016-07-30T02:52:53.747Z,1005.95
2016-07-30T02:53:53.754Z,1005.95
2016-07-30T02:54:53.758Z,1005.92
2016-07-30T02:55:53.764Z,1005.93
2016-07-30T02:56:53.770Z,1005.96
2016-07-30T02:57:53.777Z,1005.97
2016-07-30T02:58:53.832Z,1005.93
2016-07-30T02:59:53.786Z,1005.92
2016-07-30T03:00:53.793Z,1005.87
2016-07-30T03:01:53.799Z,1005.89
2016-07-30T03:02:53.804Z,1005.86
2016-07-30T03:03:53.811Z,1005.89
2016-07-30T03:04:53.818Z,1005.91
2016-07-30T03:05:53.823Z,1005.92
2016-07-30T03:06:53.828Z,1005.96
2016-07-30T03:07:53.884Z,1005.97
2016-07-30T03:08:53.842Z,1005.99
2016-07-30T03:09:53.845Z,1005.96
2016-07-30T03:10:53.852Z,1005.97
2016-07-30T03:11:53.858Z,1006
2016-07-30T03:12:53.870Z,1006.03
2016-07-30T03:13:53.868Z,1006.02
2016-07-30T03:14:53.876Z,1006.02
2016-07-30T03:15:53.884Z,1006.05
2016-07-30T03:16:53.887Z,1006.04
2016-07-30T03:17:53.894Z,1006.06
2016-07-30T03:18:53.900Z,1006.05
2016-07-30T03:19:53.907Z,1006
2016-07-30T03:20:53.911Z,1006.01
2016-07-30T03:21:53.918Z,1006.03
2016-07-30T03:22:53.924Z,1006.02
2016-07-30T03:23:53.931Z,1006
2016-07-30T03:24:53.936Z,1006
2016-07-30T03:25:53.943Z,1006.04
2016-07-30T03:26:53.949Z,1006.05
2016-07-30T03:27:53.953Z,1006.05
2016-07-30T03:28:53.960Z,1006.03
2016-07-30T03:29:53.967Z,1006.1
2016-07-30T03:30:53.972Z,1006.11
2016-07-30T03:31:53.978Z,1006.06
2016-07-30T03:32:53.983Z,1006.1
2016-07-30T03:33:53.990Z,1006.1
2016-07-30T03:34:53.996Z,1006.08
2016-07-30T03:35:54.051Z,1006.11
2016-07-30T03:36:54.007Z,1006.07
2016-07-30T03:37:54.011Z,1006.12
2016-07-30T03:38:54.019Z,1006.11
2016-07-30T03:39:54.023Z,1006.12
2016-07-30T03:40:54.030Z,1006.14
2016-07-30T03:41:54.036Z,1006.12
2016-07-30T03:42:54.040Z,1006.04
2016-07-30T03:43:54.048Z,1006.04
2016-07-30T03:44:54.050Z,1006.04
2016-07-30T03:45:54.058Z,1006.07
2016-07-30T03:46:54.062Z,1006.09
2016-07-30T03:47:54.068Z,1006.07
2016-07-30T03:48:54.072Z,1006.11
2016-07-30T03:49:54.079Z,1006.1
2016-07-30T03:50:54.083Z,1006.16
2016-07-30T03:51:54.089Z,1006.13
2016-07-30T03:53:54.102Z,1006.09
2016-07-30T03:54:54.107Z,1006.08
2016-07-30T03:55:54.113Z,1006.13
2016-07-30T03:56:54.118Z,1006.13
2016-07-30T03:57:54.125Z,1006.13
2016-07-30T03:58:54.130Z,1006.07
2016-07-30T03:59:54.136Z,1006.14
2016-07-30T04:00:54.140Z,1006.15
2016-07-30T04:01:54.146Z,1006.18
2016-07-30T04:02:54.151Z,1006.13
2016-07-30T04:03:54.158Z,1006.16
2016-07-30T04:04:54.162Z,1006.17
2016-07-30T04:05:54.167Z,1006.16
2016-07-30T04:06:54.174Z,1006.17
2016-07-30T04:08:54.184Z,1006.19
2016-07-30T04:09:54.190Z,1006.19
2016-07-30T04:10:54.196Z,1006.21
2016-07-30T04:11:54.200Z,1006.21
2016-07-30T04:12:54.207Z,1006.21
2016-07-30T04:13:54.212Z,1006.19
2016-07-30T04:14:54.218Z,1006.17
2016-07-30T04:15:54.224Z,1006.2
2016-07-30T04:16:54.227Z,1006.2
2016-07-30T04:17:54.234Z,1006.23
2016-07-30T04:18:54.238Z,1006.21
2016-07-30T04:19:54.244Z,1006.22
2016-07-30T04:20:54.249Z,1006.23
2016-07-30T04:21:54.254Z,1006.21
2016-07-30T04:23:54.266Z,1006.23
2016-07-30T04:24:54.270Z,1006.24
2016-07-30T04:25:54.276Z,1006.24
2016-07-30T04:26:54.330Z,1006.22
2016-07-30T04:27:54.287Z,1006.23
2016-07-30T04:28:54.293Z,1006.24
2016-07-30T04:29:54.297Z,1006.27
2016-07-30T04:30:54.302Z,1006.24
2016-07-30T04:31:54.310Z,1006.25
2016-07-30T04:32:54.313Z,1006.25
2016-07-30T04:33:54.323Z,1006.27
2016-07-30T04:34:54.323Z,1006.26
2016-07-30T04:35:54.378Z,1006.29
2016-07-30T04:36:54.336Z,1006.28
2016-07-30T04:38:54.344Z,1006.28
2016-07-30T04:39:55.308Z,1006.33
2016-07-30T04:40:54.355Z,1006.37
2016-07-30T04:41:54.363Z,1006.39
2016-07-30T04:42:54.367Z,1006.39
2016-07-30T04:43:54.372Z,1006.38
2016-07-30T04:44:54.377Z,1006.36
2016-07-30T04:45:54.382Z,1006.36
2016-07-30T04:46:54.388Z,1006.32
2016-07-30T04:47:54.394Z,1006.34
2016-07-30T04:48:54.398Z,1006.35
2016-07-30T04:49:54.403Z,1006.4
2016-07-30T04:50:55.510Z,1006.37
2016-07-30T04:51:54.414Z,1006.4
2016-07-30T04:52:54.418Z,1006.41
2016-07-30T04:53:54.424Z,1006.39
2016-07-30T04:55:54.435Z,1006.35
2016-07-30T04:56:54.442Z,1006.37
2016-07-30T04:57:54.447Z,1006.38
2016-07-30T04:58:54.453Z,1006.37
2016-07-30T04:59:54.457Z,1006.42
2016-07-30T05:00:54.463Z,1006.45
2016-07-30T05:01:55.370Z,1006.45
2016-07-30T05:02:54.473Z,1006.48
2016-07-30T05:03:54.480Z,1006.47
2016-07-30T05:04:54.495Z,1006.44
2016-07-30T05:05:54.490Z,1006.47
2016-07-30T05:06:54.495Z,1006.43
2016-07-30T05:07:54.501Z,1006.44
2016-07-30T05:08:54.560Z,1006.43
2016-07-30T05:09:54.523Z,1006.47
2016-07-30T05:10:54.519Z,1006.45
2016-07-30T05:11:54.522Z,1006.46
2016-07-30T05:12:55.580Z,1006.46
2016-07-30T05:13:54.534Z,1006.45
2016-07-30T05:14:54.541Z,1006.45
2016-07-30T05:15:54.546Z,1006.46
2016-07-30T05:16:54.552Z,1006.49
2016-07-30T05:17:54.557Z,1006.44
2016-07-30T05:18:54.563Z,1006.47
2016-07-30T05:19:54.570Z,1006.44
2016-07-30T05:20:54.574Z,1006.47
2016-07-30T05:21:54.578Z,1006.47
2016-07-30T05:22:54.584Z,1006.5
2016-07-30T05:23:55.696Z,1006.49
2016-07-30T05:24:54.594Z,1006.53
2016-07-30T05:25:54.601Z,1006.54
2016-07-30T05:26:54.607Z,1006.6
2016-07-30T05:27:54.612Z,1006.58
2016-07-30T05:28:54.617Z,1006.63
2016-07-30T05:29:54.674Z,1006.62
2016-07-30T05:30:54.629Z,1006.66
2016-07-30T05:31:54.635Z,1007.07
2016-07-30T05:32:54.639Z,1007.01
2016-07-30T05:33:54.646Z,1007.02
2016-07-30T05:34:55.653Z,1006.82
2016-07-30T05:35:54.712Z,1006.65
2016-07-30T05:36:54.663Z,1006.76
2016-07-30T05:37:54.670Z,1006.65
2016-07-30T05:38:54.676Z,1006.66
2016-07-30T05:39:54.681Z,1006.63
2016-07-30T05:40:54.687Z,1006.68
2016-07-30T05:41:54.694Z,1007.19
2016-07-30T05:42:54.698Z,1007.32
2016-07-30T05:43:54.705Z,1007.35
2016-07-30T05:44:54.711Z,1007.25
2016-07-30T05:45:55.669Z,1006.6
2016-07-30T05:46:54.724Z,1006.56
2016-07-30T05:47:54.730Z,1006.66
2016-07-30T05:48:54.737Z,1006.75
2016-07-30T05:49:54.743Z,1007.3
2016-07-30T05:50:54.747Z,1006.53
2016-07-30T05:51:54.755Z,1006.52
2016-07-30T05:52:54.762Z,1006.52
2016-07-30T05:53:54.766Z,1006.57
2016-07-30T05:54:54.774Z,1006.68
2016-07-30T05:55:54.780Z,1006.77
2016-07-30T05:56:55.787Z,1006.86
2016-07-30T05:57:54.792Z,1006.59
2016-07-30T05:58:54.799Z,1006.94
2016-07-30T05:59:54.806Z,1006.98
2016-07-30T06:00:54.813Z,1007.01
2016-07-30T06:01:54.817Z,1006.55
2016-07-30T06:02:54.823Z,1006.77
2016-07-30T06:03:54.833Z,1007.36
2016-07-30T06:04:54.838Z,1007.16
2016-07-30T06:05:54.844Z,1007.21
2016-07-30T06:06:54.853Z,1006.84
2016-07-30T06:07:55.609Z,1006.62
2016-07-30T06:08:54.863Z,1007.66
2016-07-30T06:09:54.869Z,1007.73
2016-07-30T06:10:54.878Z,1006.82
2016-07-30T06:11:54.884Z,1007.62
2016-07-30T06:12:54.891Z,1007.95
2016-07-30T06:13:54.899Z,1007.75
2016-07-30T06:14:54.905Z,1007.74
2016-07-30T06:15:54.913Z,1007.43
2016-07-30T06:16:54.920Z,1006.92
2016-07-30T06:17:54.928Z,1007.14
2016-07-30T06:18:55.837Z,1008.1
2016-07-30T06:19:54.944Z,1008
2016-07-30T06:20:54.951Z,1008.1
2016-07-30T06:21:54.958Z,1008.21
2016-07-30T06:22:54.967Z,1008.31
2016-07-30T06:23:54.974Z,1008.19
2016-07-30T06:24:54.983Z,1008.36
2016-07-30T06:25:54.991Z,1008.33
2016-07-30T06:26:54.999Z,1008.32
2016-07-30T06:27:55.009Z,1008.26
2016-07-30T06:28:55.016Z,1008.2
2016-07-30T06:29:55.928Z,1008.24
2016-07-30T06:30:55.033Z,1008.27
2016-07-30T06:31:55.044Z,1008.27
2016-07-30T06:32:55.053Z,1008.33
2016-07-30T06:33:55.061Z,1008.39
2016-07-30T06:34:55.070Z,1008.34
2016-07-30T06:35:55.081Z,1008.32
2016-07-30T06:36:55.092Z,1008.17
2016-07-30T06:37:55.100Z,1008.09
2016-07-30T06:38:55.108Z,1008.06
2016-07-30T06:39:55.120Z,1008.16
2016-07-30T06:40:55.130Z,1008.16
2016-07-30T06:41:55.139Z,1008.16
2016-07-30T06:42:55.199Z,1008.19
2016-07-30T06:43:55.157Z,1008.12
2016-07-30T06:44:55.168Z,1008.09
2016-07-30T06:45:55.177Z,1008.18
2016-07-30T06:46:55.186Z,1008.06
2016-07-30T06:47:55.249Z,1008.12
2016-07-30T06:48:55.208Z,1008.18
2016-07-30T06:49:55.218Z,1008.16
2016-07-30T06:50:55.240Z,1008.13
2016-07-30T06:51:56.367Z,1008.03
2016-07-30T06:52:55.249Z,1007.04
2016-07-30T06:53:55.260Z,1006.82
2016-07-30T06:55:55.282Z,1006.77
2016-07-30T06:56:55.292Z,1006.92
2016-07-30T06:57:55.301Z,1006.74
2016-07-30T06:58:55.318Z,1006.72
2016-07-30T06:59:55.320Z,1006.75
2016-07-30T07:00:55.331Z,1006.72
2016-07-30T07:01:55.340Z,1006.71
2016-07-30T07:02:55.348Z,1006.75
2016-07-30T07:03:55.356Z,1006.71
2016-07-30T07:04:55.365Z,1006.72
2016-07-30T07:05:55.372Z,1006.73
2016-07-30T07:06:55.384Z,1006.75
2016-07-30T07:07:55.390Z,1006.73
2016-07-30T07:08:55.399Z,1006.69
2016-07-30T07:09:55.406Z,1006.74
2016-07-30T07:10:55.414Z,1006.74
2016-07-30T07:11:55.421Z,1006.7
2016-07-30T07:12:55.429Z,1006.71
2016-07-30T07:13:56.486Z,1006.75
2016-07-30T07:14:55.443Z,1006.8
2016-07-30T07:15:55.448Z,1006.8
2016-07-30T07:16:55.455Z,1006.8
2016-07-30T07:17:55.463Z,1006.81
2016-07-30T07:18:55.470Z,1006.86
2016-07-30T07:19:55.478Z,1006.85
2016-07-30T07:20:55.484Z,1006.87
2016-07-30T07:21:55.490Z,1006.87
2016-07-30T07:22:55.497Z,1006.85
2016-07-30T07:23:55.504Z,1006.83
2016-07-30T07:24:56.613Z,1006.89
2016-07-30T07:25:55.518Z,1006.86
2016-07-30T07:26:55.525Z,1006.86
2016-07-30T07:27:55.532Z,1006.92
2016-07-30T07:28:55.538Z,1006.92
2016-07-30T07:29:55.546Z,1006.89
2016-07-30T07:30:55.551Z,1006.89
2016-07-30T07:31:55.559Z,1006.92
2016-07-30T07:32:55.564Z,1006.93
2016-07-30T07:33:55.572Z,1006.95
2016-07-30T07:34:55.579Z,1006.99
2016-07-30T07:35:56.738Z,1006.99
2016-07-30T07:36:55.592Z,1007.03
2016-07-30T07:37:55.597Z,1007.03
2016-07-30T07:38:55.605Z,1007.04
2016-07-30T07:39:55.660Z,1007.07
2016-07-30T07:40:55.617Z,1007.1
2016-07-30T07:41:55.624Z,1007.1
2016-07-30T07:42:55.631Z,1007.12
2016-07-30T07:43:55.638Z,1007.17
2016-07-30T07:44:55.643Z,1007.22
2016-07-30T07:45:55.650Z,1007.21
2016-07-30T07:46:56.758Z,1007.26
2016-07-30T07:47:55.663Z,1007.26
2016-07-30T07:48:55.670Z,1007.24
2016-07-30T07:49:55.675Z,1007.21
2016-07-30T07:50:55.683Z,1007.19
2016-07-30T07:51:55.688Z,1007.16
2016-07-30T07:52:55.694Z,1007.16
2016-07-30T07:53:55.704Z,1007.17
2016-07-30T07:54:55.708Z,1007.19
2016-07-30T07:55:55.714Z,1007.23
2016-07-30T07:56:55.720Z,1007.27
2016-07-30T07:57:55.729Z,1007.31
2016-07-30T07:58:55.733Z,1007.25
2016-07-30T07:59:55.743Z,1007.32
2016-07-30T08:00:55.748Z,1007.3
2016-07-30T08:01:55.751Z,1007.31
2016-07-30T08:02:55.760Z,1007.28
2016-07-30T08:03:55.766Z,1007.33
2016-07-30T08:04:55.773Z,1007.35
2016-07-30T08:05:55.780Z,1007.33
2016-07-30T08:06:55.784Z,1007.31
2016-07-30T08:07:55.792Z,1007.41
2016-07-30T08:08:55.798Z,1007.33
2016-07-30T08:09:55.805Z,1007.32
2016-07-30T08:10:55.810Z,1007.3
2016-07-30T08:11:55.818Z,1007.28
2016-07-30T08:12:55.823Z,1007.32
2016-07-30T08:13:55.829Z,1007.34
2016-07-30T08:14:55.836Z,1007.38
2016-07-30T08:15:55.842Z,1007.35
2016-07-30T08:16:55.847Z,1007.31
2016-07-30T08:17:55.855Z,1007.32
2016-07-30T08:18:55.862Z,1007.3
2016-07-30T08:19:55.867Z,1007.35
2016-07-30T08:20:55.875Z,1007.32
2016-07-30T08:21:55.879Z,1007.3
2016-07-30T08:22:55.887Z,1007.27
2016-07-30T08:24:55.900Z,1007.24
2016-07-30T08:25:55.906Z,1007.24
2016-07-30T08:26:55.912Z,1007.26
2016-07-30T08:27:55.918Z,1007.23
2016-07-30T08:28:55.925Z,1007.24
2016-07-30T08:29:55.933Z,1007.27
2016-07-30T08:30:55.938Z,1007.27
2016-07-30T08:31:55.945Z,1007.2
2016-07-30T08:32:55.950Z,1007.21
2016-07-30T08:33:55.958Z,1007.17
2016-07-30T08:34:55.963Z,1007.15
2016-07-30T08:35:55.968Z,1007.17
2016-07-30T08:36:55.975Z,1007.15
2016-07-30T08:37:55.982Z,1007.12
2016-07-30T08:39:56.044Z,1007.13
2016-07-30T08:40:56.050Z,1007.1
2016-07-30T08:41:56.005Z,1007.14
2016-07-30T08:42:56.014Z,1007.1
2016-07-30T08:43:56.070Z,1007.11
2016-07-30T08:44:56.026Z,1007.14
2016-07-30T08:45:56.031Z,1007.07
2016-07-30T08:46:56.037Z,1007.08
2016-07-30T08:47:56.044Z,1007.07
2016-07-30T08:48:56.052Z,1007.09
2016-07-30T08:49:56.056Z,1007.08
2016-07-30T08:50:56.062Z,1007.02
2016-07-30T08:51:56.070Z,1007.05
2016-07-30T08:52:57.226Z,1007.1
2016-07-30T08:55:56.094Z,1007.06
2016-07-30T08:56:56.098Z,1007.09
2016-07-30T08:57:56.106Z,1007.07
2016-07-30T08:58:56.112Z,1007.11
2016-07-30T08:59:56.118Z,1007.07
2016-07-30T09:00:56.124Z,1007.07
2016-07-30T09:01:56.137Z,1007.06
2016-07-30T09:02:56.137Z,1007.06
2016-07-30T09:03:56.143Z,1007.03
2016-07-30T09:04:56.148Z,1007.06
2016-07-30T09:05:56.156Z,1007.08
2016-07-30T09:06:56.163Z,1007.08
2016-07-30T09:07:56.167Z,1007
2016-07-30T09:08:56.174Z,1007.06
2016-07-30T09:09:56.183Z,1007.08
2016-07-30T09:10:56.189Z,1007.08
2016-07-30T09:11:56.195Z,1007.05
2016-07-30T09:12:56.201Z,1007.04
2016-07-30T09:13:56.208Z,1007.06
2016-07-30T09:14:56.215Z,1007.09
2016-07-30T09:15:56.220Z,1007.1
2016-07-30T09:16:56.226Z,1007.1
2016-07-30T09:17:56.233Z,1007.09
2016-07-30T09:18:56.238Z,1007.07
2016-07-30T09:19:56.245Z,1007.08
2016-07-30T09:20:56.252Z,1007.13
2016-07-30T09:21:56.258Z,1007.15
2016-07-30T09:22:56.265Z,1007.18
2016-07-30T09:23:56.270Z,1007.11
2016-07-30T09:24:56.277Z,1007.14
2016-07-30T09:25:56.282Z,1007.13
2016-07-30T09:26:56.289Z,1007.12
2016-07-30T09:27:56.297Z,1007.16
2016-07-30T09:28:56.303Z,1007.16
2016-07-30T09:29:56.309Z,1007.15
2016-07-30T09:30:56.315Z,1007.17
2016-07-30T09:31:56.322Z,1007.21
2016-07-30T09:32:56.329Z,1007.14
2016-07-30T09:33:56.334Z,1007.14
2016-07-30T09:34:56.340Z,1007.17
2016-07-30T09:35:56.347Z,1007.12
2016-07-30T09:36:56.351Z,1007.22
2016-07-30T09:37:56.359Z,1007.17
2016-07-30T09:38:56.363Z,1007.18
2016-07-30T09:39:56.371Z,1007.18
2016-07-30T09:40:56.377Z,1007.16
2016-07-30T09:41:56.389Z,1007.15
2016-07-30T09:42:56.389Z,1007.16
2016-07-30T09:43:56.394Z,1007.18
2016-07-30T09:44:56.401Z,1007.17
2016-07-30T09:45:56.408Z,1007.14
2016-07-30T09:46:56.413Z,1007.16
2016-07-30T09:47:56.420Z,1007.19
2016-07-30T09:48:56.426Z,1007.18
2016-07-30T09:49:56.483Z,1007.21
2016-07-30T09:50:56.438Z,1007.17
2016-07-30T09:51:56.443Z,1007.2
2016-07-30T09:52:56.450Z,1007.18
2016-07-30T09:53:56.459Z,1007.16
2016-07-30T09:54:56.463Z,1007.12
2016-07-30T09:55:56.469Z,1007.13
2016-07-30T09:56:56.476Z,1007.12
2016-07-30T09:57:56.480Z,1007.16
2016-07-30T09:58:56.487Z,1007.18
2016-07-30T09:59:56.493Z,1007.15
2016-07-30T10:00:56.499Z,1007.15
2016-07-30T10:01:56.506Z,1007.21
2016-07-30T10:02:56.512Z,1007.23
2016-07-30T10:03:56.518Z,1007.21
2016-07-30T10:04:56.529Z,1007.2
2016-07-30T10:05:56.532Z,1007.19
2016-07-30T10:06:56.541Z,1007.18
2016-07-30T10:07:56.545Z,1007.17
2016-07-30T10:08:56.551Z,1007.2
2016-07-30T10:09:56.556Z,1007.17
2016-07-30T10:10:56.562Z,1007.14
2016-07-30T10:11:56.570Z,1007.18
2016-07-30T10:12:56.576Z,1007.11
2016-07-30T10:13:56.581Z,1007.12
2016-07-30T10:14:56.589Z,1007.15
2016-07-30T10:15:56.595Z,1007.1
2016-07-30T10:16:56.601Z,1007.11
2016-07-30T10:17:56.609Z,1007.11
2016-07-30T10:18:56.616Z,1007.14
2016-07-30T10:19:56.621Z,1007.12
2016-07-30T10:20:56.628Z,1007.12
2016-07-30T10:21:56.634Z,1007.16
2016-07-30T10:22:56.642Z,1007.17
2016-07-30T10:23:56.648Z,1007.17
2016-07-30T10:24:56.653Z,1007.2
2016-07-30T10:25:56.661Z,1007.23
2016-07-30T10:26:56.668Z,1007.18
2016-07-30T10:27:56.674Z,1007.22
2016-07-30T10:28:56.680Z,1007.26
2016-07-30T10:29:56.686Z,1007.2
2016-07-30T10:30:56.692Z,1007.26
2016-07-30T10:31:56.700Z,1007.21
2016-07-30T10:32:56.715Z,1007.22
2016-07-30T10:33:56.713Z,1007.18
2016-07-30T10:34:56.721Z,1007.2
2016-07-30T10:35:56.725Z,1007.17
2016-07-30T10:36:56.732Z,1007.22
2016-07-30T10:37:56.741Z,1007.17
2016-07-30T10:38:56.745Z,1007.22
2016-07-30T10:39:56.751Z,1007.24
2016-07-30T10:40:56.759Z,1007.22
2016-07-30T10:41:56.768Z,1007.24
2016-07-30T10:42:56.772Z,1007.24
2016-07-30T10:43:56.779Z,1007.2
2016-07-30T10:44:56.840Z,1007.24
2016-07-30T10:45:56.790Z,1007.25
2016-07-30T10:46:56.796Z,1007.3
2016-07-30T10:47:56.803Z,1007.27
2016-07-30T10:48:56.861Z,1007.21
2016-07-30T10:49:56.816Z,1007.28
2016-07-30T10:50:56.825Z,1007.3
2016-07-30T10:51:56.828Z,1007.3
2016-07-30T10:52:56.836Z,1007.25
2016-07-30T10:53:56.842Z,1007.29
2016-07-30T10:54:56.848Z,1007.24
2016-07-30T10:55:56.854Z,1007.25
2016-07-30T10:56:56.861Z,1007.22
2016-07-30T10:57:56.867Z,1007.25
2016-07-30T10:58:56.873Z,1007.31
2016-07-30T10:59:56.880Z,1007.29
2016-07-30T11:00:56.886Z,1007.33
2016-07-30T11:01:56.892Z,1007.34
2016-07-30T11:02:56.899Z,1007.29
2016-07-30T11:03:56.907Z,1007.32
2016-07-30T11:04:56.911Z,1007.31
2016-07-30T11:05:56.917Z,1007.3
2016-07-30T11:06:56.925Z,1007.31
2016-07-30T11:07:56.931Z,1007.33
2016-07-30T11:08:56.937Z,1007.33
2016-07-30T11:09:56.944Z,1007.29
2016-07-30T11:10:56.952Z,1007.28
2016-07-30T11:11:56.955Z,1007.26
2016-07-30T11:12:56.963Z,1007.33
2016-07-30T11:13:56.969Z,1007.29
2016-07-30T11:14:56.975Z,1007.27
2016-07-30T11:15:56.982Z,1007.27
2016-07-30T11:16:56.987Z,1007.24
2016-07-30T11:17:56.993Z,1007.26
2016-07-30T11:18:57.002Z,1007.27
2016-07-30T11:19:57.006Z,1007.3
2016-07-30T11:20:57.115Z,1007.31
2016-07-30T11:21:57.019Z,1007.35
2016-07-30T11:22:57.026Z,1007.36
2016-07-30T11:23:57.034Z,1007.36
2016-07-30T11:25:57.095Z,1007.32
2016-07-30T11:26:57.052Z,1007.34
2016-07-30T11:27:57.108Z,1007.39
2016-07-30T11:28:57.065Z,1007.39
2016-07-30T11:29:57.071Z,1007.34
2016-07-30T11:30:57.076Z,1007.36
2016-07-30T11:31:57.085Z,1007.37
2016-07-30T11:32:57.092Z,1007.28
2016-07-30T11:33:57.097Z,1007.33
2016-07-30T11:34:57.104Z,1007.34
2016-07-30T11:35:57.112Z,1007.31
2016-07-30T11:36:57.118Z,1007.3
2016-07-30T11:37:57.124Z,1007.26
2016-07-30T11:38:57.130Z,1007.24
2016-07-30T11:39:57.138Z,1007.23
2016-07-30T11:40:57.144Z,1007.23
2016-07-30T11:41:57.150Z,1007.29
2016-07-30T11:42:57.155Z,1007.23
2016-07-30T11:43:57.163Z,1007.23
2016-07-30T11:44:57.169Z,1007.23
2016-07-30T11:45:57.176Z,1007.2
2016-07-30T11:46:57.183Z,1007.15
2016-07-30T11:47:57.190Z,1007.11
2016-07-30T11:48:57.196Z,1007.15
2016-07-30T11:49:57.202Z,1007.18
2016-07-30T11:50:57.210Z,1007.2
2016-07-30T11:51:57.265Z,1007.23
2016-07-30T11:52:57.221Z,1007.25
2016-07-30T11:53:57.279Z,1007.24
2016-07-30T11:54:57.234Z,1007.29
2016-07-30T11:55:57.242Z,1007.23
2016-07-30T11:56:57.249Z,1007.24
2016-07-30T11:57:57.255Z,1007.24
2016-07-30T11:58:57.263Z,1007.22
2016-07-30T11:59:57.268Z,1007.16
2016-07-30T12:00:57.274Z,1007.16
2016-07-30T12:01:57.281Z,1007.17
2016-07-30T12:02:57.286Z,1007.18
2016-07-30T12:03:57.292Z,1007.14
2016-07-30T12:04:57.299Z,1007.14
2016-07-30T12:05:57.306Z,1007.13
2016-07-30T12:06:57.310Z,1007.15
2016-07-30T12:07:57.318Z,1007.16
2016-07-30T12:08:57.325Z,1007.18
2016-07-30T12:09:57.330Z,1007.23
2016-07-30T12:10:57.337Z,1007.2
2016-07-30T12:11:57.343Z,1007.23
2016-07-30T12:12:57.350Z,1007.25
2016-07-30T12:13:57.356Z,1007.22
2016-07-30T12:14:57.362Z,1007.23
2016-07-30T12:15:57.369Z,1007.27
2016-07-30T12:16:57.377Z,1007.26
2016-07-30T12:17:57.380Z,1007.28
2016-07-30T12:18:57.389Z,1007.24
2016-07-30T12:19:57.394Z,1007.29
2016-07-30T12:20:57.402Z,1007.27
2016-07-30T12:21:57.407Z,1007.29